Terminal Aerodrome Forecast
Issued by NWS Wilmington, OH

Current Version | Previous Version | Text Only | Print | Product List | Glossary Off
Versions: 1 2 3 4 5 6 7 8 9 10 11 12 13 14 15 16 17 18 19 20

000
FTUS41 KILN 200100 AAA
TAFILN
TAF AMD
KILN 200151Z 2002/2024 35008KT P6SM FEW035 SCT250
     FM200600 01006KT P6SM BKN250
     FM201200 03006KT P6SM BKN150
     FM201900 04008KT P6SM BKN100 OVC150=

USA.gov is the U.S. government's official web portal to all federal, state and local government web resources and services.